Terminal Aerodrome Forecast
Issued by NWS

Home | Current Version | Previous Version | Text Only | Print | Product List | Glossary On
Versions: 1 2 3 4 5 6 7 8 9 10 11 12 13 14 15 16 17 18 19 20 21 22 23 24 25 26 27
000
FTUS44 KLIX 240500
TAFHDC
TAF
KHDC 240520Z 2406/2506 19003KT P6SM SKC
     FM241000 VRB03KT P6SM SCT015
      TEMPO 2410/2413 4SM BR
     FM241400 18009KT P6SM SCT035
     FM250100 17008KT P6SM SCT250=

USA.gov is the U.S. government's official web portal to all federal, state and local government web resources and services.